Time;durP1;ratioP1;P1;durP2;ratioP2;P2;SDS_P1;SDS_P2;PMS_P1;PMS_P2;Temp;Humidity;BMP_temperature;BMP_pressure;BME280_temperature;BME280_humidity;BME280_pressure;Samples;Min_cycle;Max_cycle;Signal;HPM_P1;HPM_P2
2023/04/28 00:00:27;;;;;;;8.00;1.87;;;;;;;6.37;61.21;101138.91;6067278;28;20037;-71
2023/04/28 00:03:22;;;;;;;5.57;2.15;;;;;;;6.26;61.08;101107.22;6050736;28;20177;-71
2023/04/28 00:06:18;;;;;;;4.13;2.00;;;;;;;6.29;61.28;101127.22;6051884;28;20038;-72
2023/04/28 00:09:13;;;;;;;5.63;2.07;;;;;;;6.28;61.86;101121.13;6051804;28;20469;-71
2023/04/28 00:12:08;;;;;;;3.50;1.53;;;;;;;6.23;61.92;101106.59;6051436;28;20288;-70
2023/04/28 00:15:04;;;;;;;5.87;2.10;;;;;;;6.25;61.82;101104.72;6051282;28;20516;-72
2023/04/28 00:17:59;;;;;;;6.30;2.00;;;;;;;6.25;61.67;101105.53;6059921;28;20033;-73
2023/04/28 00:20:55;;;;;;;4.53;2.13;;;;;;;6.23;62.37;101112.69;6051414;28;20457;-72
2023/04/28 00:23:50;;;;;;;6.65;2.72;;;;;;;6.25;61.88;101089.72;6050521;28;20036;-72
2023/04/28 00:26:45;;;;;;;6.60;1.87;;;;;;;6.27;61.76;101090.47;6051043;28;20037;-72
2023/04/28 00:29:41;;;;;;;3.70;1.60;;;;;;;6.35;61.05;101085.50;6051305;28;20049;-71
2023/04/28 00:32:36;;;;;;;5.03;2.00;;;;;;;6.48;60.60;101085.44;6051067;28;20436;-72
2023/04/28 00:35:31;;;;;;;4.07;2.03;;;;;;;6.36;60.93;101086.34;6050258;28;20037;-72
2023/04/28 00:38:26;;;;;;;4.03;1.70;;;;;;;6.44;60.56;101090.09;6050895;28;20041;-71
2023/04/28 00:41:22;;;;;;;5.30;1.93;;;;;;;6.42;60.98;101080.63;6050463;28;20026;-73
2023/04/28 00:44:17;;;;;;;4.70;2.20;;;;;;;6.44;60.32;101084.00;6050369;28;20030;-72
2023/04/28 00:47:16;;;;;;;5.63;1.80;;;;;;;6.48;60.55;101080.19;6050403;28;20422;-71
2023/04/28 00:50:12;;;;;;;4.00;1.80;;;;;;;6.44;60.68;101049.75;6051119;28;20037;-71
2023/04/28 00:53:07;;;;;;;6.35;2.05;;;;;;;6.44;60.90;101063.75;6050773;28;20461;-72
2023/04/28 00:56:02;;;;;;;4.93;1.83;;;;;;;6.42;60.51;101055.13;6049583;28;20030;-71
2023/04/28 00:58:58;;;;;;;7.45;2.13;;;;;;;6.50;60.05;101044.03;6042119;28;20063;-71
2023/04/28 01:01:53;;;;;;;4.60;1.80;;;;;;;6.53;60.71;101056.97;6047050;28;20057;-71
2023/04/28 01:04:50;;;;;;;6.13;2.27;;;;;;;6.48;60.33;101048.56;6050112;28;20026;-72
2023/04/28 01:07:45;;;;;;;6.82;1.98;;;;;;;6.56;60.36;101047.06;6050644;28;20385;-70
2023/04/28 01:10:43;;;;;;;9.03;2.10;;;;;;;6.63;60.18;101051.91;6057226;28;20026;-71
2023/04/28 01:13:39;;;;;;;8.00;2.08;;;;;;;6.57;60.38;101053.19;6049852;28;20037;-72
2023/04/28 01:16:36;;;;;;;4.28;1.60;;;;;;;6.69;60.07;101065.44;6049686;28;20025;-71
2023/04/28 01:19:31;;;;;;;6.07;2.50;;;;;;;6.51;60.65;101045.72;6049852;28;20401;-71
2023/04/28 01:22:27;;;;;;;4.85;2.00;;;;;;;6.49;60.54;101034.47;6048956;28;20028;-70
2023/04/28 01:25:22;;;;;;;5.50;2.20;;;;;;;6.42;61.13;101035.84;6049006;28;20037;-72
2023/04/28 01:28:17;;;;;;;6.60;2.13;;;;;;;6.49;60.54;101029.19;6049905;28;20384;-69
2023/04/28 01:31:13;;;;;;;5.23;2.07;;;;;;;6.34;61.40;101017.13;6048940;28;20474;-72
2023/04/28 01:34:08;;;;;;;4.37;2.03;;;;;;;6.31;62.30;101025.25;6048955;28;20040;-70
2023/04/28 01:37:03;;;;;;;6.57;2.20;;;;;;;6.32;62.92;101016.41;6049870;28;20033;-73
2023/04/28 01:39:58;;;;;;;7.33;2.03;;;;;;;6.32;62.42;101026.94;6049687;28;20600;-70
2023/04/28 01:42:54;;;;;;;4.17;2.03;;;;;;;6.25;63.12;101015.19;6049461;28;20034;-71
2023/04/28 01:45:50;;;;;;;4.17;2.07;;;;;;;6.27;62.49;101008.84;6049062;28;20022;-73
2023/04/28 01:48:46;;;;;;;5.95;2.13;;;;;;;6.33;62.00;101018.09;6050116;28;20445;-71
2023/04/28 01:51:41;;;;;;;3.75;2.08;;;;;;;6.37;62.82;101025.66;6049149;28;20035;-74
2023/04/28 01:54:37;;;;;;;4.65;2.10;;;;;;;6.39;61.87;101028.16;6049047;28;20030;-72
2023/04/28 01:57:34;;;;;;;4.23;2.33;;;;;;;6.35;61.59;101011.75;6049507;28;20044;-72
2023/04/28 02:00:29;;;;;;;6.32;2.13;;;;;;;6.30;61.81;101002.53;6050133;28;20014;-70
2023/04/28 02:03:24;;;;;;;5.03;2.00;;;;;;;6.44;61.87;101002.34;6058487;28;20021;-72
2023/04/28 02:06:20;;;;;;;5.50;2.20;;;;;;;6.45;61.50;101004.00;6071223;28;20042;-70
2023/04/28 02:09:15;;;;;;;6.50;2.33;;;;;;;6.41;61.45;100999.94;6049444;28;20045;-71
2023/04/28 02:12:10;;;;;;;5.83;2.37;;;;;;;6.48;61.27;100990.63;6049075;28;20405;-72
2023/04/28 02:15:06;;;;;;;5.23;2.27;;;;;;;6.42;61.17;100976.09;6048279;28;20029;-72
2023/04/28 02:18:02;;;;;;;6.97;2.30;;;;;;;6.50;60.87;100986.06;6049613;28;20513;-72
2023/04/28 02:20:57;;;;;;;6.68;2.72;;;;;;;6.50;61.19;100983.44;6049152;28;20036;-72
2023/04/28 02:23:52;;;;;;;4.43;1.87;;;;;;;6.55;60.62;100986.56;6052027;28;20056;-71
2023/04/28 02:26:48;;;;;;;6.93;2.07;;;;;;;6.45;60.82;100964.50;6054333;28;20030;-70
2023/04/28 02:29:43;;;;;;;5.10;2.57;;;;;;;6.43;60.97;100969.06;6053656;28;20029;-72
2023/04/28 02:32:38;;;;;;;7.00;2.43;;;;;;;6.43;61.24;100963.78;6053461;28;20518;-71
2023/04/28 02:35:34;;;;;;;4.80;2.17;;;;;;;6.51;61.00;100956.16;6053251;28;20026;-72
2023/04/28 02:38:29;;;;;;;7.05;2.10;;;;;;;6.49;61.56;100965.97;6053675;28;20061;-74
2023/04/28 02:41:25;;;;;;;5.50;2.47;;;;;;;6.51;61.50;100957.00;6053794;28;20105;-70
2023/04/28 02:44:21;;;;;;;7.53;2.40;;;;;;;6.41;60.78;100942.00;6053054;28;20513;-72
2023/04/28 02:47:16;;;;;;;5.13;1.95;;;;;;;6.46;61.77;100937.22;6060193;28;20042;-71
2023/04/28 02:50:11;;;;;;;7.23;2.57;;;;;;;6.54;60.18;100940.13;6053599;28;20038;-73
2023/04/28 02:53:06;;;;;;;3.73;1.90;;;;;;;6.56;60.23;100946.13;6053420;28;20041;-72
2023/04/28 02:56:03;;;;;;;5.00;1.93;;;;;;;6.53;60.36;100933.16;6052983;28;20473;-72
2023/04/28 02:58:58;;;;;;;3.90;2.17;;;;;;;6.64;60.14;100941.09;6053057;28;20022;-71
2023/04/28 03:01:54;;;;;;;6.83;2.80;;;;;;;6.56;60.11;100925.03;6053191;28;20037;-73
2023/04/28 03:04:49;;;;;;;5.30;2.07;;;;;;;6.65;60.00;100934.91;6052115;28;20034;-73
2023/04/28 03:07:44;;;;;;;4.50;2.27;;;;;;;6.60;60.07;100929.13;6053391;28;20022;-71
2023/04/28 03:10:40;;;;;;;5.95;2.53;;;;;;;6.62;59.00;100927.22;6053183;28;20271;-72
2023/04/28 03:13:36;;;;;;;7.30;2.13;;;;;;;6.58;59.73;100915.22;6052580;28;20030;-73
2023/04/28 03:16:31;;;;;;;8.75;2.55;;;;;;;6.69;59.22;100919.66;6053268;28;20034;-72
2023/04/28 03:19:26;;;;;;;8.27;1.93;;;;;;;6.70;59.12;100931.91;6052318;28;20061;-72
2023/04/28 03:22:21;;;;;;;5.63;2.43;;;;;;;6.67;59.01;100911.06;6052918;28;20032;-71
2023/04/28 03:25:17;;;;;;;4.67;1.60;;;;;;;6.76;59.07;100911.22;6052128;28;20036;-72
2023/04/28 03:28:12;;;;;;;6.78;2.35;;;;;;;6.74;58.51;100897.28;6052903;28;20029;-71
2023/04/28 03:31:07;;;;;;;5.47;1.73;;;;;;;6.77;58.86;100896.22;6052769;28;20029;-73
2023/04/28 03:34:03;;;;;;;5.57;2.50;;;;;;;6.70;58.24;100890.59;6051540;28;20038;-73
2023/04/28 03:36:58;;;;;;;6.28;2.35;;;;;;;6.76;58.63;100890.13;6052348;28;20428;-73
2023/04/28 03:39:53;;;;;;;6.10;2.20;;;;;;;6.79;59.04;100884.63;6052298;28;20469;-71
2023/04/28 03:42:49;;;;;;;5.67;2.50;;;;;;;6.87;58.52;100887.50;6052685;28;20022;-71
2023/04/28 03:45:44;;;;;;;6.33;2.17;;;;;;;6.89;58.06;100874.19;6054549;28;20040;-72
2023/04/28 03:48:39;;;;;;;4.43;1.80;;;;;;;6.89;58.30;100880.31;6052066;28;20470;-73
2023/04/28 03:51:35;;;;;;;4.80;1.93;;;;;;;6.91;57.88;100883.66;6057484;28;20038;-72
2023/04/28 03:54:30;;;;;;;5.50;2.37;;;;;;;6.81;58.15;100851.06;6055885;28;20037;-72
2023/04/28 03:57:25;;;;;;;5.97;2.40;;;;;;;6.95;58.07;100879.84;6052038;28;20728;-70
2023/04/28 04:00:21;;;;;;;3.63;2.17;;;;;;;6.86;58.12;100867.38;6051808;28;20416;-72
2023/04/28 04:03:16;;;;;;;9.93;3.00;;;;;;;6.89;58.46;100872.41;6051060;28;20026;-72
2023/04/28 04:06:12;;;;;;;6.40;2.13;;;;;;;6.75;58.77;100856.81;6051528;28;20045;-70
2023/04/28 04:09:08;;;;;;;5.60;2.70;;;;;;;6.70;58.70;100851.06;6051144;28;20480;-73
2023/04/28 04:12:03;;;;;;;6.97;2.67;;;;;;;6.68;58.69;100855.63;6058391;28;20590;-71
2023/04/28 04:14:58;;;;;;;7.72;2.33;;;;;;;6.63;59.50;100841.97;6050666;28;20026;-73
2023/04/28 04:17:54;;;;;;;5.53;2.40;;;;;;;6.70;58.93;100864.25;6051494;28;20033;-71
2023/04/28 04:20:49;;;;;;;7.63;2.57;;;;;;;6.66;60.31;100862.78;6051417;28;20485;-71
2023/04/28 04:23:44;;;;;;;3.83;2.00;;;;;;;6.56;59.90;100843.38;6050876;28;20080;-72
2023/04/28 04:26:40;;;;;;;6.78;2.67;;;;;;;6.57;60.12;100845.06;6051674;28;20273;-73
2023/04/28 04:29:36;;;;;;;9.50;2.70;;;;;;;6.64;60.37;100854.16;6052766;28;20117;-71
2023/04/28 04:32:31;;;;;;;6.65;2.70;;;;;;;6.57;60.75;100842.44;6080132;28;20028;-71
2023/04/28 04:35:26;;;;;;;7.47;2.97;;;;;;;6.53;60.81;100830.44;6060005;28;20056;-71
2023/04/28 04:38:22;;;;;;;10.23;2.75;;;;;;;6.69;60.50;100838.81;6050633;28;20045;-71
2023/04/28 04:41:19;;;;;;;7.80;2.60;;;;;;;6.69;60.26;100832.72;6050750;28;20121;-70
2023/04/28 04:44:14;;;;;;;6.55;2.38;;;;;;;6.80;60.11;100828.31;6049754;28;20360;-71
2023/04/28 04:47:10;;;;;;;5.23;2.40;;;;;;;6.94;59.34;100830.72;6049862;28;20037;-72
2023/04/28 04:50:05;;;;;;;9.90;3.60;;;;;;;7.08;58.94;100834.91;6050844;28;20034;-72
2023/04/28 04:53:01;;;;;;;5.65;2.60;;;;;;;7.19;59.68;100835.75;6050562;28;20313;-69
2023/04/28 04:55:56;;;;;;;7.63;3.00;;;;;;;7.51;58.27;100824.41;6049981;28;20037;-71
2023/04/28 04:58:51;;;;;;;10.00;2.83;;;;;;;7.68;57.01;100811.53;6050101;28;20060;-70
2023/04/28 05:01:47;;;;;;;8.05;2.90;;;;;;;7.85;56.72;100835.72;6050342;28;20033;-72
2023/04/28 05:04:42;;;;;;;6.60;2.90;;;;;;;8.03;56.95;100816.53;6050202;28;20030;-72
2023/04/28 05:07:37;;;;;;;11.60;3.37;;;;;;;7.95;56.56;100826.91;6049754;28;20037;-72
2023/04/28 05:10:33;;;;;;;6.27;3.10;;;;;;;8.30;56.61;100824.84;6066820;28;20508;-74
2023/04/28 05:13:28;;;;;;;8.17;3.40;;;;;;;8.25;55.93;100802.38;6066738;28;20026;-72
2023/04/28 05:16:23;;;;;;;9.60;3.60;;;;;;;8.05;56.21;100798.75;6049699;28;20041;-73
2023/04/28 05:19:18;;;;;;;8.50;3.60;;;;;;;8.14;56.41;100805.06;6067765;28;20543;-72
2023/04/28 05:22:14;;;;;;;11.17;3.60;;;;;;;8.25;56.52;100823.50;6055236;28;20061;-72
2023/04/28 05:25:09;;;;;;;6.43;3.50;;;;;;;8.25;56.44;100799.72;6052358;28;20104;-70
2023/04/28 05:28:06;;;;;;;9.53;4.30;;;;;;;8.08;56.66;100800.31;6073890;28;20041;-72
2023/04/28 05:31:01;;;;;;;8.27;4.10;;;;;;;8.06;57.67;100813.66;6073416;28;20357;-72
2023/04/28 05:33:57;;;;;;;9.00;4.20;;;;;;;7.97;57.41;100801.19;6057982;28;20025;-70
2023/04/28 05:36:52;;;;;;;9.25;3.85;;;;;;;8.02;58.10;100793.72;6051015;28;20028;-71
2023/04/28 05:39:48;;;;;;;7.90;3.97;;;;;;;8.15;57.48;100804.13;6049727;28;20026;-70
2023/04/28 05:42:43;;;;;;;8.97;3.87;;;;;;;8.12;57.83;100809.66;6072580;28;20029;-71
2023/04/28 05:45:39;;;;;;;7.93;4.27;;;;;;;8.04;57.61;100805.03;6069513;28;20044;-70
2023/04/28 05:48:34;;;;;;;12.02;4.18;;;;;;;8.02;57.77;100799.00;6049428;28;20525;-71
2023/04/28 05:51:30;;;;;;;7.10;3.55;;;;;;;8.00;58.58;100773.69;6049272;28;20420;-71
2023/04/28 05:54:25;;;;;;;8.23;3.50;;;;;;;8.20;58.41;100796.66;6049156;28;20030;-71
2023/04/28 05:57:21;;;;;;;9.75;3.83;;;;;;;8.17;58.53;100805.66;6049574;28;20029;-71
2023/04/28 06:00:16;;;;;;;8.85;3.88;;;;;;;8.15;58.11;100788.28;6048186;28;20030;-72
2023/04/28 06:03:13;;;;;;;8.25;3.65;;;;;;;8.28;57.92;100779.22;6049570;28;20046;-72
2023/04/28 06:06:09;;;;;;;9.02;4.30;;;;;;;8.26;58.92;100777.66;6048605;28;20038;-70
2023/04/28 06:09:05;;;;;;;10.95;3.95;;;;;;;8.34;58.17;100778.69;6048886;28;20464;-70
2023/04/28 06:12:00;;;;;;;7.67;4.10;;;;;;;8.51;57.81;100789.63;6049352;28;20032;-71
2023/04/28 06:14:55;;;;;;;8.07;3.93;;;;;;;8.58;58.18;100785.50;6049021;28;20030;-70
2023/04/28 06:17:51;;;;;;;7.73;3.67;;;;;;;8.52;57.51;100786.00;6049335;28;20112;-74
2023/04/28 06:20:47;;;;;;;14.45;4.90;;;;;;;8.76;57.07;100779.47;6048823;28;20106;-73
2023/04/28 06:23:42;;;;;;;10.15;3.90;;;;;;;8.86;57.11;100768.91;6046390;28;20033;-73
2023/04/28 06:26:37;;;;;;;6.13;4.27;;;;;;;9.07;56.36;100777.63;6046682;28;20180;-73
2023/04/28 06:29:33;;;;;;;9.68;4.70;;;;;;;9.01;55.68;100767.59;6047641;28;20100;-72
2023/04/28 06:32:28;;;;;;;11.07;5.13;;;;;;;8.96;56.12;100759.22;6047527;28;20030;-71
2023/04/28 06:35:23;;;;;;;7.83;4.33;;;;;;;9.01;56.41;100750.88;6046661;28;20052;-70
2023/04/28 06:38:19;;;;;;;9.43;4.70;;;;;;;8.96;56.11;100738.06;6048465;28;20065;-71
2023/04/28 06:41:14;;;;;;;12.57;4.60;;;;;;;9.23;55.70;100750.66;6048812;28;20033;-73
2023/04/28 06:44:09;;;;;;;9.75;4.28;;;;;;;9.24;55.18;100749.69;6048827;28;20080;-72
2023/04/28 06:47:05;;;;;;;10.60;4.07;;;;;;;9.49;54.90;100746.50;6049136;28;20036;-73
2023/04/28 06:50:00;;;;;;;9.27;4.07;;;;;;;9.74;54.61;100748.59;6048904;28;20029;-70
2023/04/28 06:52:57;;;;;;;8.68;4.50;;;;;;;9.94;54.51;100758.22;6063611;28;20021;-72
2023/04/28 06:55:52;;;;;;;13.48;4.68;;;;;;;9.65;54.26;100746.78;6074319;28;20068;-70
2023/04/28 06:58:48;;;;;;;11.03;6.40;;;;;;;9.82;54.37;100763.78;6064475;28;20112;-71
2023/04/28 07:01:43;;;;;;;12.60;4.38;;;;;;;9.82;54.52;100745.25;6048603;28;20080;-71
2023/04/28 07:04:38;;;;;;;8.67;4.23;;;;;;;9.98;53.73;100746.34;6047760;28;20052;-71
2023/04/28 07:07:35;;;;;;;9.50;4.43;;;;;;;10.15;53.74;100761.56;6048982;28;20038;-71
2023/04/28 07:10:30;;;;;;;12.00;4.68;;;;;;;10.08;53.62;100741.06;6055832;28;20037;-71
2023/04/28 07:13:25;;;;;;;11.90;5.50;;;;;;;10.07;53.78;100760.56;6069665;28;20048;-70
2023/04/28 07:16:21;;;;;;;13.17;5.17;;;;;;;10.09;53.62;100750.66;6053121;28;20026;-70
2023/04/28 07:19:16;;;;;;;12.02;3.85;;;;;;;10.06;52.85;100741.19;6052854;28;20576;-71
2023/04/28 07:22:11;;;;;;;13.57;5.03;;;;;;;10.27;53.14;100748.16;6052936;28;20034;-71
2023/04/28 07:25:07;;;;;;;15.03;5.53;;;;;;;10.41;53.04;100742.41;6052193;28;20026;-70
2023/04/28 07:28:02;;;;;;;10.60;4.53;;;;;;;10.62;52.72;100729.78;6052656;28;20045;-71
2023/04/28 07:30:58;;;;;;;13.48;4.82;;;;;;;10.57;52.32;100718.75;6052921;28;20033;-69
2023/04/28 07:33:53;;;;;;;11.10;5.03;;;;;;;10.34;53.22;100730.69;6052015;28;20068;-70
2023/04/28 07:36:49;;;;;;;10.52;4.95;;;;;;;10.23;53.94;100737.00;6052679;28;20069;-70
2023/04/28 07:39:44;;;;;;;10.67;5.33;;;;;;;10.63;53.40;100729.59;6052315;28;20377;-71
2023/04/28 07:42:40;;;;;;;11.77;4.53;;;;;;;10.47;53.33;100742.66;6052650;28;20021;-69
2023/04/28 07:45:38;;;;;;;11.82;4.85;;;;;;;10.35;53.60;100725.25;6051464;28;20030;-70
2023/04/28 07:48:34;;;;;;;10.13;4.85;;;;;;;10.27;53.62;100735.75;6052138;28;20381;-70
2023/04/28 07:51:29;;;;;;;9.05;5.30;;;;;;;10.26;54.00;100733.22;6052545;28;20042;-71
2023/04/28 07:54:25;;;;;;;16.65;5.95;;;;;;;10.14;53.49;100727.25;6051513;28;20037;-71
2023/04/28 07:57:20;;;;;;;12.45;5.47;;;;;;;10.12;54.21;100724.75;6052139;28;20092;-69
2023/04/28 08:00:16;;;;;;;12.57;4.90;;;;;;;10.28;54.29;100724.16;6051449;28;20056;-71
2023/04/28 08:03:12;;;;;;;17.20;5.72;;;;;;;10.18;54.00;100728.66;6051758;28;20022;-72
2023/04/28 08:06:07;;;;;;;16.23;5.67;;;;;;;10.26;54.68;100731.41;6051609;28;20385;-74
2023/04/28 08:09:04;;;;;;;15.43;5.57;;;;;;;10.44;53.39;100716.44;6051723;28;20461;-70
2023/04/28 08:12:00;;;;;;;8.25;4.40;;;;;;;10.65;52.70;100729.47;6051705;28;20037;-73
2023/04/28 08:14:56;;;;;;;11.05;4.65;;;;;;;10.73;53.47;100725.09;6050973;28;20029;-72
2023/04/28 08:17:51;;;;;;;11.45;5.38;;;;;;;10.98;52.34;100722.75;6051277;28;20030;-69
2023/04/28 08:20:46;;;;;;;15.23;5.43;;;;;;;11.26;52.23;100729.69;6050588;28;20025;-71
2023/04/28 08:23:42;;;;;;;11.63;5.40;;;;;;;11.66;51.65;100710.66;6050822;28;20022;-71
2023/04/28 08:26:37;;;;;;;11.57;5.43;;;;;;;11.92;50.70;100707.09;6051688;28;20030;-71
2023/04/28 08:29:33;;;;;;;10.38;5.18;;;;;;;11.56;51.98;100710.72;6051349;28;20642;-70
2023/04/28 08:32:28;;;;;;;13.23;5.40;;;;;;;11.94;51.23;100707.78;6051298;28;20062;-70
2023/04/28 08:35:23;;;;;;;13.53;5.60;;;;;;;11.56;51.27;100710.72;6050532;28;20120;-70
2023/04/28 08:38:21;;;;;;;21.00;8.17;;;;;;;11.84;50.95;100716.81;6050906;28;20045;-70
2023/04/28 08:41:18;;;;;;;14.68;6.07;;;;;;;12.04;50.63;100717.47;6051040;28;20053;-74
2023/04/28 08:44:13;;;;;;;11.40;5.07;;;;;;;11.87;50.56;100705.88;6050318;28;20030;-71
2023/04/28 08:47:13;;;;;;;11.00;4.93;;;;;;;11.77;50.86;100689.19;6050844;28;20076;-72
2023/04/28 08:50:08;;;;;;;13.50;5.25;;;;;;;11.56;51.20;100702.78;6061707;28;20034;-72
2023/04/28 08:53:06;;;;;;;13.85;5.57;;;;;;;11.80;50.88;100694.19;6050512;28;20045;-70
2023/04/28 08:56:04;;;;;;;11.98;5.35;;;;;;;11.69;51.70;100713.88;6050364;28;20037;-72
2023/04/28 08:59:03;;;;;;;10.30;5.25;;;;;;;11.87;51.87;100685.47;6050407;28;20038;-71
2023/04/28 09:01:59;;;;;;;10.40;4.93;;;;;;;12.03;52.06;100706.00;6050601;28;20022;-71
2023/04/28 09:04:54;;;;;;;15.77;5.22;;;;;;;11.89;52.24;100678.16;6048326;28;20080;-72
2023/04/28 09:07:50;;;;;;;9.67;5.33;;;;;;;11.79;52.50;100692.53;6050217;28;20034;-71
2023/04/28 09:10:46;;;;;;;9.20;4.90;;;;;;;11.78;53.03;100690.88;6050257;28;20424;-71
2023/04/28 09:13:41;;;;;;;14.97;5.87;;;;;;;12.05;51.56;100682.75;6049517;28;20088;-72
2023/04/28 09:16:40;;;;;;;10.07;4.70;;;;;;;12.52;51.09;100683.19;6050143;28;20113;-71
2023/04/28 09:19:36;;;;;;;11.30;5.32;;;;;;;12.44;50.75;100675.19;6069966;28;20495;-71
2023/04/28 09:22:32;;;;;;;13.95;5.40;;;;;;;12.19;51.45;100673.38;6084451;28;20039;-72
2023/04/28 09:25:27;;;;;;;14.38;6.32;;;;;;;12.35;51.35;100673.47;6071275;28;20033;-71
2023/04/28 09:28:22;;;;;;;11.70;5.40;;;;;;;12.05;52.35;100655.34;6049816;28;20029;-69
2023/04/28 09:31:23;;;;;;;11.98;5.10;;;;;;;12.22;52.70;100662.44;6049744;28;20045;-70
2023/04/28 09:34:18;;;;;;;9.52;5.53;;;;;;;12.30;52.37;100655.34;6049133;28;20116;-70
2023/04/28 09:37:22;;;;;;;12.82;5.57;;;;;;;12.65;51.24;100659.63;6050020;28;20033;-70
2023/04/28 09:40:17;;;;;;;11.73;5.50;;;;;;;12.52;51.28;100644.13;6049213;28;20072;-72
2023/04/28 09:43:28;;;;;;;12.77;5.83;;;;;;;12.13;52.63;100636.78;6049827;28;20038;-71
2023/04/28 09:46:28;;;;;;;12.82;6.28;;;;;;;12.54;51.94;100649.28;6049671;28;20469;-71
2023/04/28 09:49:23;;;;;;;12.80;5.00;;;;;;;13.00;51.05;100627.47;6049156;28;20034;-71
2023/04/28 09:52:19;;;;;;;14.97;5.70;;;;;;;13.17;50.53;100633.69;6049427;28;20080;-72
2023/04/28 09:55:14;;;;;;;10.60;5.13;;;;;;;13.44;50.69;100635.19;6048151;28;20029;-73
2023/04/28 09:58:11;;;;;;;13.05;5.45;;;;;;;12.83;52.16;100639.06;6048871;28;20438;-72
2023/04/28 10:01:10;;;;;;;10.73;5.75;;;;;;;13.16;51.62;100628.50;6047931;28;20025;-71
2023/04/28 10:04:06;;;;;;;13.43;6.75;;;;;;;13.04;51.56;100628.78;6047593;28;20117;-71
2023/04/28 10:07:01;;;;;;;14.82;7.57;;;;;;;13.06;51.71;100604.69;6049137;28;20434;-72
2023/04/28 10:09:57;;;;;;;12.00;5.97;;;;;;;12.78;52.49;100616.59;6048739;28;20041;-71
2023/04/28 10:12:53;;;;;;;9.43;5.47;;;;;;;13.13;51.85;100622.53;6060183;28;20033;-70
2023/04/28 10:15:49;;;;;;;11.07;5.55;;;;;;;12.84;51.64;100610.63;6049496;28;20030;-72
2023/04/28 10:18:45;;;;;;;13.60;6.68;;;;;;;13.11;51.46;100629.84;6049307;28;20409;-72
2023/04/28 10:21:47;;;;;;;15.20;6.07;;;;;;;12.83;52.00;100625.75;6049130;28;20034;-71
2023/04/28 10:24:58;;;;;;;11.82;4.97;;;;;;;12.80;52.13;100625.28;6048386;28;20350;-72
2023/04/28 10:27:53;;;;;;;17.08;6.63;;;;;;;12.76;52.02;100619.44;6048390;28;20523;-71
2023/04/28 10:31:21;;;;;;;17.80;8.30;;;;;;;12.97;52.20;100622.47;6048934;28;20029;-72
2023/04/28 10:34:24;;;;;;;15.25;6.20;;;;;;;12.89;52.59;100603.81;6005209;28;20129;-71
2023/04/28 10:37:19;;;;;;;15.55;6.57;;;;;;;12.97;52.21;100611.81;6049354;28;20041;-71
2023/04/28 10:40:34;;;;;;;14.48;6.45;;;;;;;12.73;52.21;100592.31;6049253;28;20038;-72
2023/04/28 10:43:30;;;;;;;16.27;6.85;;;;;;;12.92;52.84;100616.81;6049552;28;20080;-71
2023/04/28 10:46:25;;;;;;;14.45;5.63;;;;;;;13.25;51.97;100619.53;6053641;28;20095;-72
2023/04/28 10:49:56;;;;;;;11.57;4.53;;;;;;;13.54;50.85;100609.22;6053463;28;20037;-71
2023/04/28 10:52:51;;;;;;;10.13;4.65;;;;;;;13.84;50.27;100605.84;6053469;28;20030;-72
2023/04/28 10:56:04;;;;;;;8.40;5.37;;;;;;;13.93;50.76;100593.34;6052942;28;20033;-72
2023/04/28 10:58:59;;;;;;;9.68;4.70;;;;;;;14.25;49.85;100596.75;6053430;28;20261;-71
2023/04/28 11:01:55;;;;;;;10.43;5.80;;;;;;;13.48;50.65;100588.59;6053110;28;20068;-72
2023/04/28 11:05:09;;;;;;;14.00;6.40;;;;;;;13.49;51.32;100595.56;6051045;28;20882;-72
2023/04/28 11:08:29;;;;;;;10.82;5.30;;;;;;;13.67;51.67;100596.19;6053260;28;20362;-72
2023/04/28 11:11:26;;;;;;;12.10;5.93;;;;;;;13.62;51.68;100585.22;6053172;28;20094;-72
2023/04/28 11:14:21;;;;;;;12.82;6.28;;;;;;;13.52;51.39;100596.06;6052439;28;20381;-70
2023/04/28 11:17:18;;;;;;;12.55;6.28;;;;;;;13.17;52.52;100600.91;6053141;28;20072;-71
2023/04/28 11:20:14;;;;;;;10.32;5.60;;;;;;;13.30;53.12;100575.44;6052662;28;20448;-72
2023/04/28 11:23:09;;;;;;;16.92;6.10;;;;;;;13.60;53.16;100600.56;6051557;28;20022;-71
2023/04/28 11:26:04;;;;;;;11.30;6.03;;;;;;;13.62;53.90;100585.22;6051060;28;20048;-71
2023/04/28 11:29:00;;;;;;;11.20;5.93;;;;;;;13.53;55.28;100597.72;6052461;28;20257;-73
2023/04/28 11:31:55;;;;;;;12.37;6.50;;;;;;;13.40;55.55;100583.28;6052589;28;20453;-72
2023/04/28 11:34:51;;;;;;;11.48;5.97;;;;;;;13.27;56.48;100580.25;6051921;28;20030;-72
2023/04/28 11:37:46;;;;;;;14.02;5.80;;;;;;;13.38;56.69;100583.41;6052220;28;20034;-74
2023/04/28 11:40:55;;;;;;;11.63;5.75;;;;;;;13.33;56.47;100588.41;6057354;28;20113;-72
2023/04/28 11:43:51;;;;;;;12.18;6.20;;;;;;;13.09;55.41;100565.28;6057647;28;20081;-72
2023/04/28 11:46:54;;;;;;;15.07;6.65;;;;;;;13.07;55.83;100580.56;6065506;28;20052;-72
2023/04/28 11:49:50;;;;;;;14.93;6.28;;;;;;;13.16;55.93;100591.22;6074311;28;20022;-71
2023/04/28 11:52:49;;;;;;;15.65;6.35;;;;;;;13.39;56.39;100586.91;6073389;28;20040;-71
2023/04/28 11:55:44;;;;;;;12.07;6.07;;;;;;;13.72;55.86;100575.22;6051052;28;20061;-71
2023/04/28 11:58:40;;;;;;;13.57;6.57;;;;;;;13.63;54.36;100554.91;6052288;28;20040;-73
2023/04/28 12:01:47;;;;;;;12.07;6.60;;;;;;;13.74;55.13;100562.56;6051803;28;20018;-73
2023/04/28 12:04:42;;;;;;;;;;;;;;;13.95;54.56;100562.00;6051261;28;20025;-72
2023/04/28 12:07:44;;;;;;;14.90;6.07;;;;;;;13.83;53.80;100566.88;6051783;28;19932;-73
2023/04/28 12:10:39;;;;;;;12.43;5.97;;;;;;;13.43;54.91;100558.94;6042838;28;20107;-73
2023/04/28 12:13:35;;;;;;;14.80;6.57;;;;;;;13.56;55.33;100548.63;6050908;28;20457;-73
2023/04/28 12:16:38;;;;;;;11.65;6.05;;;;;;;13.73;55.88;100560.88;6051252;28;20026;-73
2023/04/28 12:19:44;;;;;;;15.05;6.32;;;;;;;13.59;55.19;100565.06;6051305;28;20026;-72
2023/04/28 12:22:45;;;;;;;10.55;5.55;;;;;;;13.57;55.79;100545.78;6051181;28;20108;-72
2023/04/28 12:25:44;;;;;;;14.43;6.25;;;;;;;13.47;56.05;100539.81;6050356;28;20033;-73
2023/04/28 12:28:40;;;;;;;15.88;6.63;;;;;;;13.70;56.09;100546.06;6050958;28;20072;-72
2023/04/28 12:31:49;;;;;;;10.45;5.88;;;;;;;14.00;55.32;100538.31;6050977;28;20108;-72
2023/04/28 12:34:45;;;;;;;12.77;6.10;;;;;;;14.23;54.33;100536.56;6050414;28;20041;-73
2023/04/28 12:37:43;;;;;;;13.02;6.15;;;;;;;14.23;54.98;100537.41;6049532;28;20121;-72
2023/04/28 12:40:39;;;;;;;11.38;5.63;;;;;;;14.04;55.72;100526.31;6051262;28;20473;-73
2023/04/28 12:43:34;;;;;;;10.77;5.73;;;;;;;14.02;54.89;100539.81;6050372;28;20117;-71
2023/04/28 12:46:30;;;;;;;12.13;6.55;;;;;;;13.80;55.25;100540.56;6050964;28;20038;-71
2023/04/28 12:49:27;;;;;;;11.45;6.30;;;;;;;13.65;55.80;100536.94;6051233;28;20034;-72
2023/04/28 12:52:22;;;;;;;12.52;7.13;;;;;;;13.55;56.69;100522.97;6050898;28;20117;-72
2023/04/28 12:55:18;;;;;;;13.82;6.38;;;;;;;13.77;57.58;100527.56;6050336;28;20030;-73
2023/04/28 12:58:13;;;;;;;15.23;6.90;;;;;;;13.62;60.53;100529.25;6050915;28;20030;-72
2023/04/28 13:01:08;;;;;;;12.37;7.00;;;;;;;13.37;64.83;100536.47;6050527;28;20339;-74
2023/04/28 13:04:04;;;;;;;14.50;6.43;;;;;;;13.14;67.73;100524.84;6050124;28;20042;-73
2023/04/28 13:07:00;;;;;;;17.15;7.60;;;;;;;12.86;68.21;100542.94;6049935;28;20029;-73
2023/04/28 13:09:55;;;;;;;16.25;7.95;;;;;;;12.78;75.29;100536.75;6050627;28;20048;-74
2023/04/28 13:12:50;;;;;;;15.90;8.50;;;;;;;12.81;75.84;100534.63;6061101;28;20032;-74
2023/04/28 13:15:46;;;;;;;14.15;7.97;;;;;;;12.64;76.53;100530.25;6062773;28;20037;-74
2023/04/28 13:18:41;;;;;;;12.63;7.65;;;;;;;12.45;75.70;100519.91;6050212;28;20030;-73
2023/04/28 13:21:37;;;;;;;17.33;8.35;;;;;;;12.67;77.39;100507.81;6050091;28;20033;-72
2023/04/28 13:24:32;;;;;;;14.80;8.05;;;;;;;12.63;76.36;100517.13;6049612;28;20029;-72
2023/04/28 13:27:29;;;;;;;14.53;7.87;;;;;;;12.60;75.38;100523.63;6050084;28;20037;-70
2023/04/28 13:30:25;;;;;;;17.02;9.07;;;;;;;12.43;78.12;100511.28;6050318;28;20172;-74
2023/04/28 13:33:20;;;;;;;16.90;8.05;;;;;;;12.36;77.73;100502.28;6049196;28;20365;-73
2023/04/28 13:36:16;;;;;;;15.40;8.07;;;;;;;12.35;76.08;100487.31;6049912;28;20041;-70
2023/04/28 13:39:13;;;;;;;16.77;8.27;;;;;;;12.24;77.21;100495.59;6050158;28;20030;-72
2023/04/28 13:42:08;;;;;;;14.68;8.43;;;;;;;12.71;77.48;100510.00;6049733;28;20037;-71